createdAt,value
2023-01-21T00:01:25.274Z,18.23
2023-01-21T00:03:52.212Z,16.02
2023-01-21T00:06:19.109Z,19.27
2023-01-21T00:08:45.912Z,21.92
2023-01-21T00:11:17.200Z,17.45
2023-01-21T00:13:44.099Z,15.68
2023-01-21T00:16:10.927Z,14.85
2023-01-21T00:18:37.784Z,14.75
2023-01-21T00:21:04.698Z,15.20
2023-01-21T00:23:31.475Z,17.05
2023-01-21T00:26:02.600Z,18.52
2023-01-21T00:28:30.332Z,23.75
2023-01-21T00:30:59.370Z,17.38
2023-01-21T00:33:26.992Z,16.98
2023-01-21T00:36:12.858Z,19.50
2023-01-21T00:38:39.814Z,14.88
2023-01-21T00:41:17.392Z,16.20
2023-01-21T00:43:44.284Z,14.70
2023-01-21T00:46:11.370Z,16.52
2023-01-21T00:48:38.216Z,17.73
2023-01-21T00:51:05.170Z,16.27
2023-01-21T00:53:33.838Z,18.90
2023-01-21T00:56:04.924Z,20.60
2023-01-21T00:58:31.937Z,18.17
2023-01-21T01:01:12.230Z,19.95
2023-01-21T01:03:39.232Z,19.58
2023-01-21T01:06:16.719Z,18.63
2023-01-21T01:08:43.907Z,15.25
2023-01-21T01:11:11.291Z,16.92
2023-01-21T01:13:38.253Z,19.63
2023-01-21T01:16:05.296Z,15.60
2023-01-21T01:18:33.678Z,25.25
2023-01-21T01:21:02.594Z,15.70
2023-01-21T01:23:29.414Z,18.48
2023-01-21T01:25:57.929Z,14.93
2023-01-21T01:28:24.913Z,15.90
2023-01-21T01:30:51.871Z,18.73
2023-01-21T01:33:19.339Z,14.85
2023-01-21T01:35:47.248Z,17.08
2023-01-21T01:38:19.988Z,14.30
2023-01-21T01:40:48.018Z,18.13
2023-01-21T01:43:20.996Z,17.45
2023-01-21T01:45:47.947Z,18.90
2023-01-21T01:48:17.952Z,16.25
2023-01-21T01:50:44.781Z,16.48
2023-01-21T01:53:11.536Z,19.58
2023-01-21T01:55:38.327Z,13.27
2023-01-21T01:58:06.844Z,18.80
2023-01-21T02:00:34.021Z,16.58
2023-01-21T02:03:19.147Z,18.00
2023-01-21T02:05:45.935Z,14.98
2023-01-21T02:08:12.747Z,18.92
2023-01-21T02:10:39.597Z,17.48
2023-01-21T02:13:06.469Z,20.33
2023-01-21T02:15:44.807Z,19.20
2023-01-21T02:18:26.105Z,18.25
2023-01-21T02:20:58.737Z,15.82
2023-01-21T02:23:34.761Z,17.42
2023-01-21T02:26:39.039Z,14.57
2023-01-21T02:29:17.692Z,17.42
2023-01-21T02:31:57.277Z,15.98
2023-01-21T02:34:45.992Z,13.27
2023-01-21T02:37:48.248Z,14.68
2023-01-21T02:40:38.256Z,16.63
2023-01-21T02:43:38.657Z,18.25
2023-01-21T02:46:13.262Z,14.77
2023-01-21T02:48:42.476Z,14.55
2023-01-21T02:51:10.131Z,16.17
2023-01-21T02:53:37.022Z,15.35
2023-01-21T02:56:07.598Z,15.80
2023-01-21T02:58:37.045Z,12.05
2023-01-21T03:01:03.967Z,13.27
2023-01-21T03:03:59.598Z,14.15
2023-01-21T03:07:12.399Z,12.93
2023-01-21T03:09:39.283Z,11.15
2023-01-21T03:12:30.923Z,10.20
2023-01-21T03:15:21.264Z,9.98
2023-01-21T03:18:28.124Z,12.45
2023-01-21T03:21:09.032Z,10.73
2023-01-21T03:23:38.219Z,17.77
2023-01-21T03:26:05.419Z,10.48
2023-01-21T03:28:33.220Z,9.32
2023-01-21T03:31:18.381Z,9.63
2023-01-21T03:33:46.809Z,9.57
2023-01-21T03:36:35.819Z,11.65
2023-01-21T03:39:04.980Z,11.73
2023-01-21T03:41:34.052Z,11.90
2023-01-21T03:44:00.932Z,11.02
2023-01-21T03:46:44.348Z,15.25
2023-01-21T03:49:22.957Z,13.20
2023-01-21T03:51:52.703Z,8.02
2023-01-21T03:54:19.478Z,8.20
2023-01-21T03:56:46.314Z,6.93
2023-01-21T03:59:13.143Z,14.73
2023-01-21T04:01:41.715Z,7.43
2023-01-21T04:04:09.078Z,10.43
2023-01-21T04:06:37.038Z,8.35
2023-01-21T04:09:05.068Z,8.15
2023-01-21T04:11:31.876Z,10.45
2023-01-21T04:13:58.651Z,8.70
2023-01-21T04:16:25.543Z,10.02
2023-01-21T04:18:52.385Z,6.95
2023-01-21T04:21:19.161Z,8.40
2023-01-21T04:23:45.919Z,6.88
2023-01-21T04:26:12.752Z,6.95
2023-01-21T04:28:39.565Z,6.45
2023-01-21T04:31:06.474Z,6.35
2023-01-21T04:33:33.286Z,6.13
2023-01-21T04:36:00.772Z,4.15
2023-01-21T04:38:27.723Z,6.78
2023-01-21T04:40:54.492Z,6.82
2023-01-21T04:43:21.339Z,6.05
2023-01-21T04:45:48.236Z,6.05
2023-01-21T04:48:15.029Z,5.03
2023-01-21T04:50:41.802Z,4.80
2023-01-21T04:53:08.571Z,6.80
2023-01-21T04:55:35.358Z,5.40
2023-01-21T04:58:02.121Z,4.95
2023-01-21T05:00:28.888Z,6.00
2023-01-21T05:02:55.667Z,7.68
2023-01-21T05:05:22.447Z,6.63
2023-01-21T05:07:52.870Z,6.50
2023-01-21T05:10:19.871Z,6.63
2023-01-21T05:12:46.680Z,5.85
2023-01-21T05:15:13.448Z,5.38
2023-01-21T05:17:40.211Z,4.75
2023-01-21T05:20:07.273Z,6.93
2023-01-21T05:22:34.032Z,6.45
2023-01-21T05:25:00.871Z,6.47
2023-01-21T05:27:28.027Z,6.47
2023-01-21T05:29:54.883Z,5.13
2023-01-21T05:32:21.695Z,6.07
2023-01-21T05:34:48.501Z,5.20
2023-01-21T05:37:15.601Z,4.07
2023-01-21T05:39:42.388Z,4.97
2023-01-21T05:42:09.154Z,5.90
2023-01-21T05:44:35.931Z,6.13
2023-01-21T05:47:02.683Z,12.18
2023-01-21T05:49:29.464Z,4.80
2023-01-21T05:51:56.366Z,4.65
2023-01-21T05:54:23.127Z,7.22
2023-01-21T05:56:50.020Z,4.53
2023-01-21T05:59:16.811Z,5.63
2023-01-21T06:01:43.591Z,6.50
2023-01-21T06:04:10.376Z,5.22
2023-01-21T06:06:37.200Z,4.15
2023-01-21T06:09:04.117Z,4.55
2023-01-21T06:11:30.984Z,2.58
2023-01-21T06:13:57.751Z,2.92
2023-01-21T06:16:24.579Z,3.78
2023-01-21T06:18:51.331Z,3.75
2023-01-21T06:21:18.123Z,3.47
2023-01-21T06:23:44.884Z,5.53
2023-01-21T06:26:11.766Z,3.95
2023-01-21T06:28:38.583Z,4.05
2023-01-21T06:31:05.647Z,2.83
2023-01-21T06:33:32.430Z,4.05
2023-01-21T06:35:59.287Z,3.58
2023-01-21T06:38:26.127Z,4.85
2023-01-21T06:40:52.910Z,3.85
2023-01-21T06:43:19.663Z,3.22
2023-01-21T06:45:46.585Z,2.63
2023-01-21T06:48:13.340Z,2.28
2023-01-21T06:50:40.135Z,3.10
2023-01-21T06:53:06.934Z,2.58
2023-01-21T06:55:33.845Z,6.03
2023-01-21T06:58:00.665Z,2.42
2023-01-21T07:00:27.475Z,2.50
2023-01-21T07:02:58.261Z,3.13
2023-01-21T07:05:25.343Z,6.88
2023-01-21T07:07:56.006Z,5.32
2023-01-21T07:10:23.772Z,5.68
2023-01-21T07:12:50.864Z,6.85
2023-01-21T07:15:18.130Z,4.95
2023-01-21T07:17:44.956Z,3.63
2023-01-21T07:20:14.526Z,3.17
2023-01-21T07:22:41.299Z,6.93
2023-01-21T07:25:08.464Z,9.90
2023-01-21T07:27:35.229Z,7.05
2023-01-21T07:30:02.035Z,7.03
2023-01-21T07:32:28.831Z,7.65
2023-01-21T07:34:55.644Z,5.70
2023-01-21T07:37:22.477Z,4.53
2023-01-21T07:39:49.257Z,3.45
2023-01-21T07:42:16.027Z,5.65
2023-01-21T07:44:42.940Z,6.57
2023-01-21T07:47:10.486Z,4.38
2023-01-21T07:49:37.689Z,2.60
2023-01-21T07:52:04.526Z,4.38
2023-01-21T07:54:31.302Z,3.53
2023-01-21T07:56:58.451Z,4.80
2023-01-21T07:59:25.281Z,2.63
2023-01-21T08:01:52.294Z,2.55
2023-01-21T08:04:19.213Z,1.90
2023-01-21T08:06:45.983Z,2.70
2023-01-21T08:09:12.825Z,2.35
2023-01-21T08:11:39.609Z,2.75
2023-01-21T08:14:06.521Z,3.45
2023-01-21T08:16:33.303Z,3.17
2023-01-21T08:19:00.679Z,2.17
2023-01-21T08:21:27.557Z,3.65
2023-01-21T08:23:54.332Z,2.15
2023-01-21T08:26:21.184Z,21.33
2023-01-21T08:28:48.511Z,40.75
2023-01-21T08:31:15.398Z,49.80
2023-01-21T08:33:42.273Z,35.70
2023-01-21T08:36:09.704Z,36.83
2023-01-21T08:38:36.740Z,46.20
2023-01-21T08:41:03.596Z,37.45
2023-01-21T08:43:30.537Z,34.55
2023-01-21T08:45:58.638Z,24.85
2023-01-21T08:48:25.534Z,25.50
2023-01-21T08:50:52.417Z,29.35
2023-01-21T08:53:19.253Z,23.98
2023-01-21T08:55:46.044Z,18.55
2023-01-21T08:58:12.804Z,17.33
2023-01-21T09:00:41.678Z,17.40
2023-01-21T09:03:08.771Z,14.23
2023-01-21T09:05:35.561Z,17.33
2023-01-21T09:08:02.355Z,11.30
2023-01-21T09:10:48.034Z,9.45
2023-01-21T09:13:16.387Z,19.20
2023-01-21T09:15:43.500Z,19.63
2023-01-21T09:18:10.468Z,24.10
2023-01-21T09:20:37.413Z,26.40
2023-01-21T09:23:24.315Z,29.92
2023-01-21T09:26:04.888Z,33.33
2023-01-21T09:28:33.172Z,18.35
2023-01-21T09:31:01.362Z,32.30
2023-01-21T09:33:28.589Z,27.50
2023-01-21T09:35:56.477Z,19.02
2023-01-21T09:38:23.562Z,16.75
2023-01-21T09:40:50.383Z,13.98
2023-01-21T09:43:42.471Z,23.60
2023-01-21T09:46:15.199Z,22.58
2023-01-21T09:48:43.216Z,123.82
2023-01-21T09:51:40.554Z,62.50
2023-01-21T09:54:12.635Z,30.27
2023-01-21T09:56:48.495Z,39.20
2023-01-21T09:59:24.325Z,45.72
2023-01-21T10:01:51.209Z,36.47
2023-01-21T10:04:33.073Z,27.70
2023-01-21T10:07:15.580Z,25.30
2023-01-21T10:09:42.356Z,18.40
2023-01-21T10:12:36.600Z,18.35
2023-01-21T10:15:22.174Z,24.10
2023-01-21T10:18:11.253Z,28.52
2023-01-21T10:20:50.933Z,17.75
2023-01-21T10:23:31.176Z,15.27
2023-01-21T10:25:58.965Z,18.58
2023-01-21T10:28:27.043Z,10.82
2023-01-21T10:30:55.202Z,19.10
2023-01-21T10:33:24.182Z,13.63
2023-01-21T10:36:41.347Z,12.18
2023-01-21T10:39:19.603Z,15.73
2023-01-21T10:41:50.115Z,14.95
2023-01-21T10:44:26.011Z,18.63
2023-01-21T10:47:14.435Z,15.65
2023-01-21T10:50:02.850Z,18.63
2023-01-21T10:52:46.374Z,13.82
2023-01-21T10:55:23.055Z,14.65
2023-01-21T10:58:11.444Z,17.38
2023-01-21T11:00:43.137Z,16.08
2023-01-21T11:03:23.559Z,17.92
2023-01-21T11:05:50.364Z,18.67
2023-01-21T11:08:21.609Z,15.65
2023-01-21T11:10:49.288Z,15.80
2023-01-21T11:13:16.071Z,16.05
2023-01-21T11:15:46.152Z,15.50
2023-01-21T11:18:29.385Z,12.05
2023-01-21T11:21:00.846Z,12.23
2023-01-21T11:23:32.371Z,13.60
2023-01-21T11:26:10.065Z,19.38
2023-01-21T11:28:37.126Z,13.82
2023-01-21T11:31:08.556Z,8.82
2023-01-21T11:33:35.682Z,7.32
2023-01-21T11:36:13.454Z,8.82
2023-01-21T11:38:40.295Z,8.80
2023-01-21T11:41:15.423Z,10.77
2023-01-21T11:43:51.087Z,10.02
2023-01-21T11:46:21.478Z,12.13
2023-01-21T11:48:48.359Z,11.13
2023-01-21T11:51:16.262Z,11.85
2023-01-21T11:53:43.070Z,12.13
2023-01-21T11:56:10.097Z,11.15
2023-01-21T11:58:39.058Z,13.20
2023-01-21T12:01:08.015Z,17.02
2023-01-21T12:03:42.834Z,11.80
2023-01-21T12:06:09.844Z,16.98
2023-01-21T12:08:37.716Z,20.77
2023-01-21T12:11:05.779Z,20.15
2023-01-21T12:13:41.665Z,17.27
2023-01-21T12:16:33.220Z,16.00
2023-01-21T12:19:28.849Z,14.95
2023-01-21T12:22:16.744Z,18.77
2023-01-21T12:24:47.650Z,19.15
2023-01-21T12:27:20.637Z,17.85
2023-01-21T12:29:50.783Z,15.98
2023-01-21T12:32:28.626Z,22.45
2023-01-21T12:35:15.539Z,19.40
2023-01-21T12:37:49.919Z,19.70
2023-01-21T12:40:24.312Z,20.50
2023-01-21T12:42:56.195Z,24.13
2023-01-21T12:45:26.991Z,17.70
2023-01-21T12:47:54.763Z,21.08
2023-01-21T12:50:39.622Z,25.42
2023-01-21T12:53:09.505Z,29.33
2023-01-21T12:55:43.634Z,26.20
2023-01-21T12:58:13.114Z,26.35
2023-01-21T13:00:42.741Z,25.20
2023-01-21T13:03:15.409Z,26.20
2023-01-21T13:05:59.597Z,27.00
2023-01-21T13:08:35.563Z,22.52
2023-01-21T13:11:13.781Z,23.00
2023-01-21T13:13:47.922Z,34.78
2023-01-21T13:16:14.892Z,24.40
2023-01-21T13:18:49.945Z,29.10
2023-01-21T13:21:31.693Z,27.98
2023-01-21T13:24:31.939Z,25.25
2023-01-21T13:27:22.893Z,35.00
2023-01-21T13:30:27.212Z,29.52
2023-01-21T13:33:11.993Z,29.50
2023-01-21T13:35:49.318Z,30.80
2023-01-21T13:38:39.291Z,32.47
2023-01-21T13:41:20.150Z,37.67
2023-01-21T13:43:56.158Z,37.42
2023-01-21T13:46:46.730Z,36.55
2023-01-21T13:49:42.247Z,32.67
2023-01-21T13:52:40.293Z,30.08
2023-01-21T13:55:23.323Z,29.05
2023-01-21T13:58:02.526Z,28.65
2023-01-21T14:00:42.105Z,26.52
2023-01-21T14:03:24.177Z,26.38
2023-01-21T14:05:59.896Z,28.50
2023-01-21T14:08:34.598Z,23.13
2023-01-21T14:11:11.724Z,24.23
2023-01-21T14:13:47.359Z,25.92
2023-01-21T14:16:41.162Z,32.42
2023-01-21T14:19:36.928Z,20.73
2023-01-21T14:22:12.723Z,21.08
2023-01-21T14:25:01.405Z,24.65
2023-01-21T14:27:50.133Z,23.55
2023-01-21T14:30:30.690Z,28.77
2023-01-21T14:33:00.609Z,29.23
2023-01-21T14:35:28.249Z,28.00
2023-01-21T14:38:04.386Z,26.50
2023-01-21T14:40:34.918Z,21.42
2023-01-21T14:43:01.713Z,23.52
2023-01-21T14:45:54.182Z,28.90
2023-01-21T14:48:39.639Z,24.00
2023-01-21T14:51:06.468Z,29.90
2023-01-21T14:53:57.393Z,33.42
2023-01-21T14:56:26.152Z,28.00
2023-01-21T14:58:54.967Z,29.42
2023-01-21T15:01:45.267Z,36.55
2023-01-21T15:04:31.990Z,35.00
2023-01-21T15:07:00.618Z,34.90
2023-01-21T15:09:30.254Z,32.15
2023-01-21T15:12:00.355Z,30.85
2023-01-21T15:14:37.467Z,37.63
2023-01-21T15:17:04.261Z,25.60
2023-01-21T15:19:34.647Z,31.27
2023-01-21T15:22:03.483Z,36.03
2023-01-21T15:24:32.360Z,26.98
2023-01-21T15:27:19.354Z,30.33
2023-01-21T15:29:58.522Z,34.17
2023-01-21T15:32:30.104Z,33.38
2023-01-21T15:35:19.976Z,47.20
2023-01-21T15:37:47.655Z,33.15
2023-01-21T15:40:25.711Z,39.10
2023-01-21T15:43:05.775Z,32.10
2023-01-21T15:45:49.608Z,37.00
2023-01-21T15:48:41.367Z,42.25
2023-01-21T15:51:29.871Z,35.50
2023-01-21T15:54:20.638Z,42.83
2023-01-21T15:56:48.800Z,34.15
2023-01-21T15:59:38.460Z,38.83
2023-01-21T16:02:40.669Z,37.45
2023-01-21T16:05:10.533Z,30.98
2023-01-21T16:07:49.827Z,33.90
2023-01-21T16:10:29.103Z,31.67
2023-01-21T16:13:09.275Z,39.65
2023-01-21T16:15:58.361Z,32.90
2023-01-21T16:18:34.766Z,41.75
2023-01-21T16:21:01.603Z,37.22
2023-01-21T16:23:31.797Z,38.05
2023-01-21T16:25:58.569Z,35.55
2023-01-21T16:28:25.382Z,41.08
2023-01-21T16:30:57.336Z,42.45
2023-01-21T16:33:24.443Z,35.85
2023-01-21T16:35:56.243Z,37.85
2023-01-21T16:38:28.907Z,52.72
2023-01-21T16:41:08.156Z,48.70
2023-01-21T16:43:47.208Z,41.53
2023-01-21T16:46:18.815Z,48.15
2023-01-21T16:48:50.209Z,49.83
2023-01-21T16:51:24.886Z,65.38
2023-01-21T16:54:20.034Z,69.00
2023-01-21T16:56:57.432Z,43.72
2023-01-21T16:59:32.447Z,48.50
2023-01-21T17:01:59.580Z,46.55
2023-01-21T17:04:27.724Z,53.17
2023-01-21T17:06:54.601Z,59.83
2023-01-21T17:09:32.778Z,56.35
2023-01-21T17:12:03.273Z,53.95
2023-01-21T17:14:30.315Z,49.88
2023-01-21T17:16:58.020Z,43.58
2023-01-21T17:19:34.037Z,42.10
2023-01-21T17:22:03.308Z,56.60
2023-01-21T17:24:39.411Z,51.38
2023-01-21T17:27:10.815Z,54.95
2023-01-21T17:29:37.679Z,52.38
2023-01-21T17:32:25.700Z,55.20
2023-01-21T17:35:14.991Z,50.97
2023-01-21T17:37:55.067Z,51.67
2023-01-21T17:40:25.437Z,48.13
2023-01-21T17:42:52.236Z,44.80
2023-01-21T17:45:38.604Z,43.35
2023-01-21T17:56:49.572Z,116.57
2023-01-21T17:59:34.309Z,43.03
2023-01-21T18:02:02.392Z,83.97
2023-01-21T18:04:29.268Z,47.90
2023-01-21T18:06:56.143Z,46.78
2023-01-21T18:09:23.971Z,48.65
2023-01-21T18:11:52.253Z,41.03
2023-01-21T18:14:20.596Z,40.42
2023-01-21T18:16:47.788Z,43.00
2023-01-21T18:19:26.855Z,42.47
2023-01-21T18:21:53.751Z,44.83
2023-01-21T18:24:21.047Z,42.00
2023-01-21T18:26:47.920Z,42.85
2023-01-21T18:29:15.884Z,44.83
2023-01-21T18:31:42.783Z,43.20
2023-01-21T18:34:10.384Z,40.83
2023-01-21T18:36:38.475Z,37.95
2023-01-21T18:39:13.476Z,36.90
2023-01-21T18:41:41.381Z,41.17
2023-01-21T18:44:08.349Z,40.92
2023-01-21T18:46:41.392Z,40.47
2023-01-21T18:49:15.615Z,41.10
2023-01-21T18:51:42.655Z,42.03
2023-01-21T18:54:10.126Z,50.95
2023-01-21T18:56:37.619Z,38.55
2023-01-21T18:59:13.694Z,45.03
2023-01-21T19:01:41.423Z,40.35
2023-01-21T19:04:09.780Z,40.30
2023-01-21T19:06:36.757Z,41.63
2023-01-21T19:09:03.877Z,37.50
2023-01-21T19:11:30.669Z,37.00
2023-01-21T19:13:57.454Z,36.47
2023-01-21T19:16:24.318Z,38.28
2023-01-21T19:18:51.104Z,34.28
2023-01-21T19:21:25.728Z,40.72
2023-01-21T19:23:52.561Z,37.95
2023-01-21T19:26:19.409Z,42.20
2023-01-21T19:28:46.223Z,31.52
2023-01-21T19:31:13.182Z,37.08
2023-01-21T19:33:42.759Z,35.33
2023-01-21T19:36:15.087Z,38.65
2023-01-21T19:38:44.166Z,37.15
2023-01-21T19:41:11.028Z,35.03
2023-01-21T19:43:37.828Z,32.08
2023-01-21T19:46:06.362Z,32.50
2023-01-21T19:48:33.171Z,39.38
2023-01-21T19:51:00.118Z,40.60
2023-01-21T19:53:27.005Z,35.22
2023-01-21T19:55:53.791Z,39.38
2023-01-21T19:58:22.484Z,38.67
2023-01-21T20:00:50.242Z,38.80
2023-01-21T20:03:17.708Z,37.47
2023-01-21T20:05:44.605Z,34.72
2023-01-21T20:08:28.244Z,33.85
2023-01-21T20:10:55.080Z,39.55
2023-01-21T20:13:21.942Z,36.42
2023-01-21T20:15:49.661Z,31.40
2023-01-21T20:22:29.523Z,37.92
2023-01-21T20:24:56.288Z,41.90
2023-01-21T20:27:23.080Z,35.85
2023-01-21T20:30:02.456Z,37.22
2023-01-21T20:32:35.497Z,32.08
2023-01-21T20:35:03.463Z,38.60
2023-01-21T20:37:30.441Z,32.78
2023-01-21T20:39:57.181Z,41.75
2023-01-21T20:46:37.860Z,40.33
2023-01-21T20:49:04.848Z,38.67
2023-01-21T20:51:31.677Z,40.45
2023-01-21T20:53:58.464Z,45.60
2023-01-21T20:56:29.711Z,44.20
2023-01-21T20:58:56.603Z,39.40
2023-01-21T21:01:24.809Z,37.97
2023-01-21T21:03:51.830Z,43.20
2023-01-21T21:06:23.042Z,30.85
2023-01-21T21:08:50.233Z,37.03
2023-01-21T21:11:17.471Z,38.80
2023-01-21T21:13:46.448Z,41.95
2023-01-21T21:16:18.444Z,36.58
2023-01-21T21:18:45.376Z,35.75
2023-01-21T21:21:16.034Z,34.50
2023-01-21T21:23:46.571Z,36.17
2023-01-21T21:26:22.174Z,35.55
2023-01-21T21:28:49.479Z,34.88
2023-01-21T21:31:17.006Z,35.08
2023-01-21T21:33:43.927Z,34.05
2023-01-21T21:36:18.587Z,38.90
2023-01-21T21:43:17.419Z,31.63
2023-01-21T21:46:02.938Z,35.40
2023-01-21T21:48:38.892Z,37.83
2023-01-21T21:51:09.711Z,33.83
2023-01-21T21:53:37.088Z,38.20
2023-01-21T21:56:04.771Z,36.30
2023-01-21T21:58:31.553Z,30.77
2023-01-21T22:01:13.319Z,31.00
2023-01-21T22:03:40.411Z,32.35
2023-01-21T22:06:07.386Z,37.22
2023-01-21T22:08:35.133Z,33.67
2023-01-21T22:11:03.800Z,37.65
2023-01-21T22:13:31.606Z,32.00
2023-01-21T22:15:59.346Z,38.78
2023-01-21T22:18:26.486Z,33.38
2023-01-21T22:20:58.926Z,37.50
2023-01-21T22:23:25.677Z,32.50
2023-01-21T22:25:53.758Z,33.83
2023-01-21T22:28:21.571Z,32.30
2023-01-21T22:30:48.469Z,34.40
2023-01-21T22:33:15.286Z,32.15
2023-01-21T22:35:42.037Z,28.55
2023-01-21T22:38:08.792Z,30.63
2023-01-21T22:40:39.996Z,31.75
2023-01-21T22:43:07.472Z,31.73
2023-01-21T22:45:34.341Z,36.95
2023-01-21T22:48:01.493Z,35.28
2023-01-21T22:50:28.701Z,30.80
2023-01-21T22:52:55.475Z,33.75
2023-01-21T22:55:22.220Z,34.88
2023-01-21T22:57:48.989Z,33.13
2023-01-21T23:00:16.319Z,29.92
2023-01-21T23:02:43.165Z,35.22
2023-01-21T23:05:10.269Z,32.20
2023-01-21T23:07:37.063Z,34.88
2023-01-21T23:10:03.950Z,33.05
2023-01-21T23:12:30.764Z,36.58
2023-01-21T23:14:57.495Z,31.65
2023-01-21T23:17:24.270Z,33.25
2023-01-21T23:19:51.002Z,38.10
2023-01-21T23:22:17.988Z,31.88
2023-01-21T23:24:44.778Z,31.65
2023-01-21T23:27:11.629Z,30.65
2023-01-21T23:29:38.427Z,30.20
2023-01-21T23:32:05.619Z,29.38
2023-01-21T23:34:32.511Z,39.35
2023-01-21T23:36:59.265Z,30.70
2023-01-21T23:39:26.023Z,32.83
2023-01-21T23:41:52.855Z,28.75
2023-01-21T23:44:20.421Z,33.40
2023-01-21T23:46:47.253Z,30.30
2023-01-21T23:49:17.862Z,27.90
2023-01-21T23:51:46.142Z,33.53
2023-01-21T23:54:13.423Z,32.33
2023-01-21T23:56:40.206Z,31.60
2023-01-21T23:59:07.247Z,30.50
